Latest Observation

25 Stations

15 Minute Data | America/Los_Angeles
as of 8/31/26 8:29 AM PDT
Station Date Time Temp (°F) RH (%) Dew Pt (°F) Wind Spd (mph) Wind Dir (°) Wind Gust (mph) Latest Rain (In) Daily Rain (In) Daily Min Temp (°F) Daily Max Temp (°F)
Rockpile Upper (Cooley) 8/31/26 0815 52.9   5.9 82   18 47.5   1.0 6.4   3.5 NNW | 330 10.5   2.6 0.00 0.00 48.6   3.2 61.6   0.5
Rockpile Lower (Cooley) 8/31/26 0800 53.7   6.6 90   26 50.7   2.9 0.8   0.2 SE | 126 3.1   0.0 0.00 0.00 49.1   4.6 60.0   0.7
Cloverdale-East (Ranch 83) 8/31/26 0815 54.6   0.7 - - 2.3   2.2 SE | 126 5.2   3.4 0.00 0.00 48.1   1.5 54.8   1.5
Cloverdale-SE (Ranch 38) 8/31/26 0815 52.6   5.4 97   24 51.7   2.5 1.3   0.4 SSE | 157 4.8   1.1 0.00 0.00 50.9   3.0 54.8   5.5
Geyserville-North (Hoffman) 8/31/26 0815 55.3   4.1 92   21 53.1   2.9 0.8   0.0 N | 349 2.9   0.4 0.00 0.00 49.9   4.5 55.9   5.4
Geyserville (Ranch 3) 8/31/26 0815 55.1   3.2 97   32 54.4   7.4 1.2   0.2 NW | 308 2.8   0.6 0.00 0.00 50.6   4.0 55.5   3.4
Geyserville-East (Ranch 40) 8/31/26 0815 52.7   5.2 98   21 52.1   1.4 1.3   0.4 S | 190 4.1   0.2 0.00 0.00 51.2   1.7 53.3   7.0
Geyserville-South (Nervo Station) 8/31/26 0815 54.5   4.5 - - 1.5   0.3 ESE | 105 3.8   0.3 0.00 0.00 51.6   1.4 55.0   4.6
Peterson (Ranch 09) 8/31/26 0815 53.1   4.1 95   29 51.7   5.9 2.6   1.8 S | 189 4.2   2.2 0.00 0.00 50.1   5.3 53.4   4.5
Crazy Creek Ranch 8/31/26 0815 55.1   0.1 93   10 53.2   3.0 1.7   1.0 WSW | 256 3.3   1.2 0.00 0.00 48.8   3.7 55.9   0.7
Whitton Ranch (201e) 8/31/26 0815 54.2   1.3 96   22 52.9   5.7 2.4   1.5 SE | 128 4.2   2.1 0.00 0.00 45.2   4.5 54.5   3.4
Lytton East (Shop Hill Bottom) 8/31/26 0815 53.3   2.3 96   17 52.3   3.1 1.6   0.9 SSE | 153 3.3   1.3 0.00 0.00 48.2   2.8 53.6   3.1
Lytton East (Hill 5) 8/31/26 0815 53.0   4.2 97   22 52.2   2.9 2.4   2.0 S | 177 3.7   2.1 0.00 0.00 50.4   1.4 53.2   5.1
Lytton West Lower (Lew 6) 8/31/26 0815 53.6   4.0 100   26 53.6   4.2 1.2   0.7 SE | 143 2.5   1.0 0.00 0.00 47.1   2.9 53.7   4.5
Lytton West Hill (23PS) 8/31/26 0815 54.0   3.0 99   24 53.7   4.4 0.8   0.4 SE | 126 2.5   0.6 0.00 0.00 51.0   1.2 54.1   4.7
Big River 8/31/26 0815 54.0   1.5 97   14 53.2   2.7 0.9   0.2 S | 186 3.0   1.1 0.00 0.00 50.4   1.8 54.4   2.1
Jimtown-North (Piccolo Ranch 15) 8/31/26 0815 54.0   1.9 100   30 54.0   7.8 2.0   1.5 SW | 226 4.4   2.2 0.00 0.00 48.4   4.4 55.4   2.2
HWY 128/Chalk Hill Rd (Landslide) 8/31/26 0800 55.1   3.2 90   12 52.3   7.1 1.5   1.4 SSW | 208 3.5   2.1 0.00 0.00 50.4   7.0 55.7   2.5
N Chalk Hill Rd (Ranch 63) 8/31/26 0815 54.1   3.0 90   25 51.3   5.7 1.6   1.0 W | 267 3.6   1.8 0.00 0.00 48.2   5.9 54.7   3.1
Newman Knights Valley 8/18/26 0015 56.2   1.8 85   4 51.7   0.4 0.8   3.5 NE | 55 2.3   5.8 0.00 0.00 55.0   1.2 88.3   0.6
Knights Valley (Bavarian Lion) 8/31/26 0815 55.1   1.0 86   9 50.9   3.9 3.0   3.0 NW | 320 5.5   4.3 0.00 0.00 49.5   7.4 55.8   0.0
Red Tail 8/31/26 0815 54.1   0.3 90   4 51.1   0.9 2.0   1.8 S | 190 3.4   2.4 0.00 0.00 47.6   2.9 54.2   1.8
Franz Valley (Stornetta) 8/31/26 0815 56.2   5.0 85   4 51.9   6.2 1.5   1.4 SE | 141 3.1   2.1 0.00 0.00 48.8   6.7 57.0   3.6
Upper Dry Creek Valley 8/31/26 0815 55.6   2.8 85   20 51.2   4.7 1.2   0.5 S | 178 3.0   0.4 0.00 0.00 48.7   2.7 55.9   3.9
Lower Dry Creek Valley 8/31/26 0815 54.2   4.9 100   34 54.2   6.6 0.0   0.0 N | 0 0.0   0.0 0.00 0.00 48.1   3.4 54.4   6.5
Max     56.2 100 54.4 6.4 - 10.5 0.00 0.00 51.6 61.6
Avg     54.2 93 52.2 1.8 - 3.8 0.00 - - -
Min     52.6 82 47.5 0.0 - 0.0 0.00 0.00 45.2 53.2